NKS4983 KDTW-KDFW
Flight info
| Callsign | NKS4983 |
|---|---|
| Flight time | 2h 42m |
| Altitude | 38000 |
| Route | SNDRS BGHRT STL RZC FSM RRNET BRDJE |
| Aircraft | A20N/M-SDE2E3FGHIRWXY/LB1 |
Departure
| Time | 2026-05-06 04:43 |
|---|---|
| Airport | Detroit Metropolitan Wayne County Airport (KDTW) |
Arrival
| Time | 2026-05-06 07:26 |
|---|---|
| Airport | Dallas Fort Worth International Airport (KDFW) |
| Time | Latitude | Longitude | Altitude | Speed | Heading |
|---|---|---|---|---|---|
| 2026-05-06 03:55 | 42.22684 | -83.34842 | 652 ft | 0 kts | 118° |
| 2026-05-06 04:32 | 42.22686 | -83.34846 | 652 ft | 2 kts | 118° |
| 2026-05-06 04:32 | 42.22691 | -83.34859 | 653 ft | 2 kts | 118° |
| 2026-05-06 04:32 | 42.22696 | -83.34872 | 653 ft | 2 kts | 118° |
| 2026-05-06 04:33 | 42.22701 | -83.34886 | 653 ft | 2 kts | 118° |
| 2026-05-06 04:33 | 42.22707 | -83.34899 | 652 ft | 2 kts | 118° |
| 2026-05-06 04:33 | 42.22714 | -83.34911 | 652 ft | 1 kts | 155° |
| 2026-05-06 04:33 | 42.22722 | -83.34912 | 654 ft | 1 kts | 208° |
| 2026-05-06 04:34 | 42.22730 | -83.34906 | 653 ft | 1 kts | 211° |
| 2026-05-06 04:34 | 42.22736 | -83.34901 | 652 ft | 0 kts | 211° |
| 2026-05-06 04:35 | 42.22736 | -83.34902 | 652 ft | 1 kts | 211° |
| 2026-05-06 04:36 | 42.22720 | -83.34913 | 656 ft | 5 kts | 208° |
| 2026-05-06 04:36 | 42.22668 | -83.34951 | 652 ft | 12 kts | 208° |
| 2026-05-06 04:36 | 42.22576 | -83.35018 | 653 ft | 18 kts | 208° |
| 2026-05-06 04:36 | 42.22454 | -83.35109 | 652 ft | 21 kts | 219° |
| 2026-05-06 04:37 | 42.22364 | -83.35263 | 654 ft | 21 kts | 234° |
| 2026-05-06 04:37 | 42.22264 | -83.35367 | 652 ft | 19 kts | 212° |
| 2026-05-06 04:37 | 42.22150 | -83.35452 | 652 ft | 19 kts | 209° |
| 2026-05-06 04:37 | 42.22034 | -83.35536 | 652 ft | 19 kts | 208° |
| 2026-05-06 04:38 | 42.21936 | -83.35596 | 652 ft | 10 kts | 169° |
| 2026-05-06 04:38 | 42.21879 | -83.35541 | 652 ft | 11 kts | 141° |
| 2026-05-06 04:38 | 42.21823 | -83.35461 | 653 ft | 13 kts | 105° |
| 2026-05-06 04:38 | 42.21823 | -83.35327 | 652 ft | 16 kts | 88° |
| 2026-05-06 04:39 | 42.21827 | -83.35166 | 652 ft | 18 kts | 88° |
| 2026-05-06 04:39 | 42.21829 | -83.34987 | 653 ft | 20 kts | 89° |
| 2026-05-06 04:39 | 42.21833 | -83.34795 | 653 ft | 21 kts | 89° |
| 2026-05-06 04:39 | 42.21835 | -83.34589 | 653 ft | 22 kts | 89° |
| 2026-05-06 04:40 | 42.21913 | -83.34462 | 653 ft | 20 kts | 27° |
| 2026-05-06 04:40 | 42.22035 | -83.34367 | 654 ft | 21 kts | 33° |
| 2026-05-06 04:40 | 42.22169 | -83.34270 | 653 ft | 23 kts | 26° |
| 2026-05-06 04:40 | 42.22310 | -83.34166 | 653 ft | 24 kts | 29° |
| 2026-05-06 04:41 | 42.22459 | -83.34057 | 652 ft | 25 kts | 28° |
| 2026-05-06 04:41 | 42.22614 | -83.33942 | 653 ft | 26 kts | 28° |
| 2026-05-06 04:41 | 42.22778 | -83.33820 | 652 ft | 28 kts | 28° |
| 2026-05-06 04:41 | 42.22863 | -83.33723 | 653 ft | 6 kts | 109° |
| 2026-05-06 04:42 | 42.22832 | -83.33658 | 652 ft | 10 kts | 123° |
| 2026-05-06 04:42 | 42.22787 | -83.33645 | 652 ft | 0 kts | 210° |
| 2026-05-06 04:42 | 42.22786 | -83.33646 | 652 ft | 3 kts | 210° |
| 2026-05-06 04:42 | 42.22590 | -83.33791 | 658 ft | 64 kts | 208° |
| 2026-05-06 04:43 | 42.22012 | -83.34221 | 656 ft | 128 kts | 208° |
| 2026-05-06 04:43 | 42.21096 | -83.34908 | 931 ft | 153 kts | 208° |
| 2026-05-06 04:43 | 42.20182 | -83.35560 | 1614 ft | 149 kts | 209° |
| 2026-05-06 04:43 | 42.19210 | -83.36242 | 2031 ft | 171 kts | 211° |
| 2026-05-06 04:44 | 42.18038 | -83.36946 | 2400 ft | 196 kts | 201° |
| 2026-05-06 04:44 | 42.16653 | -83.37395 | 2842 ft | 212 kts | 191° |
| 2026-05-06 04:44 | 42.15164 | -83.37779 | 3306 ft | 226 kts | 197° |
| 2026-05-06 04:44 | 42.13574 | -83.38417 | 3702 ft | 249 kts | 199° |
| 2026-05-06 04:45 | 42.11853 | -83.39124 | 4206 ft | 267 kts | 198° |
| 2026-05-06 04:45 | 42.10064 | -83.39832 | 5087 ft | 268 kts | 199° |
| 2026-05-06 04:45 | 42.08273 | -83.40546 | 6013 ft | 268 kts | 202° |
| 2026-05-06 04:45 | 42.06631 | -83.41628 | 6644 ft | 259 kts | 216° |
| 2026-05-06 04:46 | 42.05155 | -83.42983 | 6955 ft | 256 kts | 219° |
| 2026-05-06 04:46 | 42.03711 | -83.44402 | 7012 ft | 256 kts | 219° |
| 2026-05-06 04:46 | 42.02294 | -83.45807 | 7014 ft | 257 kts | 219° |
| 2026-05-06 04:46 | 42.00853 | -83.47229 | 7007 ft | 257 kts | 219° |
| 2026-05-06 04:47 | 42.00235 | -83.47838 | 7011 ft | 257 kts | 219° |
| 2026-05-06 04:47 | 41.98802 | -83.49270 | 7108 ft | 255 kts | 220° |
| 2026-05-06 04:47 | 41.97385 | -83.50726 | 7669 ft | 257 kts | 220° |
| 2026-05-06 04:47 | 41.95964 | -83.52193 | 8630 ft | 257 kts | 220° |
| 2026-05-06 04:48 | 41.94562 | -83.53641 | 9566 ft | 257 kts | 220° |
| 2026-05-06 04:48 | 41.93134 | -83.55116 | 10316 ft | 263 kts | 220° |
| 2026-05-06 04:48 | 41.91628 | -83.56674 | 10687 ft | 283 kts | 220° |
| 2026-05-06 04:48 | 41.90049 | -83.58307 | 11001 ft | 302 kts | 220° |
| 2026-05-06 04:49 | 41.88323 | -83.60087 | 11317 ft | 322 kts | 220° |
| 2026-05-06 04:49 | 41.86496 | -83.61968 | 11692 ft | 338 kts | 220° |
| 2026-05-06 04:49 | 41.84605 | -83.63911 | 12307 ft | 346 kts | 220° |
| 2026-05-06 04:49 | 41.82698 | -83.65867 | 13019 ft | 350 kts | 220° |
| 2026-05-06 04:50 | 41.80746 | -83.67870 | 13725 ft | 354 kts | 220° |
| 2026-05-06 04:50 | 41.78793 | -83.69871 | 14508 ft | 353 kts | 220° |
| 2026-05-06 04:50 | 41.76835 | -83.71878 | 15215 ft | 355 kts | 220° |
| 2026-05-06 04:50 | 41.74865 | -83.73897 | 15868 ft | 358 kts | 220° |
| 2026-05-06 04:51 | 41.72872 | -83.75938 | 16539 ft | 361 kts | 220° |
| 2026-05-06 04:51 | 41.70862 | -83.77986 | 17191 ft | 365 kts | 220° |
| 2026-05-06 04:51 | 41.68769 | -83.79877 | 17832 ft | 369 kts | 216° |
| 2026-05-06 04:51 | 41.66541 | -83.81703 | 18433 ft | 373 kts | 216° |
| 2026-05-06 04:52 | 41.64330 | -83.83477 | 18980 ft | 376 kts | 215° |
| 2026-05-06 04:52 | 41.62076 | -83.85280 | 19560 ft | 377 kts | 215° |
| 2026-05-06 04:52 | 41.59816 | -83.87089 | 20125 ft | 379 kts | 216° |
| 2026-05-06 04:52 | 41.57543 | -83.88909 | 20700 ft | 381 kts | 216° |
| 2026-05-06 04:53 | 41.55261 | -83.90736 | 21287 ft | 382 kts | 215° |
| 2026-05-06 04:53 | 41.52983 | -83.92558 | 21897 ft | 382 kts | 215° |
| 2026-05-06 04:53 | 41.50699 | -83.94384 | 22518 ft | 382 kts | 215° |
| 2026-05-06 04:53 | 41.48448 | -83.96183 | 23052 ft | 383 kts | 215° |
| 2026-05-06 04:54 | 41.46155 | -83.98015 | 23561 ft | 385 kts | 215° |
| 2026-05-06 04:54 | 41.43844 | -83.99860 | 23969 ft | 388 kts | 215° |
| 2026-05-06 04:54 | 41.41523 | -84.01712 | 24345 ft | 391 kts | 215° |
| 2026-05-06 04:54 | 41.39174 | -84.03583 | 24726 ft | 393 kts | 216° |
| 2026-05-06 04:55 | 41.36823 | -84.05455 | 25174 ft | 395 kts | 216° |
| 2026-05-06 04:55 | 41.34461 | -84.07334 | 25534 ft | 398 kts | 217° |
| 2026-05-06 04:55 | 41.32073 | -84.09233 | 25893 ft | 401 kts | 217° |
| 2026-05-06 04:55 | 41.29685 | -84.11209 | 26255 ft | 402 kts | 220° |
| 2026-05-06 04:56 | 41.27493 | -84.13477 | 26611 ft | 400 kts | 226° |
| 2026-05-06 04:56 | 41.25574 | -84.16131 | 26952 ft | 398 kts | 234° |
| 2026-05-06 04:56 | 41.23993 | -84.19097 | 27326 ft | 396 kts | 242° |
| 2026-05-06 04:56 | 41.22751 | -84.22348 | 27836 ft | 393 kts | 248° |
| 2026-05-06 04:57 | 41.21716 | -84.25702 | 28359 ft | 391 kts | 250° |
| 2026-05-06 04:57 | 41.20724 | -84.29052 | 28890 ft | 389 kts | 250° |
| 2026-05-06 04:57 | 41.19737 | -84.32392 | 29367 ft | 387 kts | 250° |
| 2026-05-06 04:57 | 41.18751 | -84.35706 | 29887 ft | 386 kts | 250° |
| 2026-05-06 04:58 | 41.17764 | -84.39010 | 30333 ft | 384 kts | 250° |
| 2026-05-06 04:58 | 41.16779 | -84.42294 | 30849 ft | 379 kts | 251° |
| 2026-05-06 04:58 | 41.15820 | -84.45485 | 31405 ft | 374 kts | 251° |
| 2026-05-06 04:58 | 41.14857 | -84.48678 | 31960 ft | 369 kts | 252° |
| 2026-05-06 04:59 | 41.13909 | -84.51820 | 32486 ft | 364 kts | 252° |
| 2026-05-06 04:59 | 41.12972 | -84.54923 | 32982 ft | 360 kts | 253° |
| 2026-05-06 04:59 | 41.12045 | -84.57988 | 33457 ft | 356 kts | 253° |
| 2026-05-06 04:59 | 41.11125 | -84.61025 | 33917 ft | 353 kts | 254° |
| 2026-05-06 05:00 | 41.10307 | -84.64042 | 34256 ft | 348 kts | 258° |
| 2026-05-06 05:00 | 41.09692 | -84.67166 | 34514 ft | 346 kts | 261° |
| 2026-05-06 05:00 | 41.09166 | -84.70245 | 34779 ft | 345 kts | 261° |
| 2026-05-06 05:00 | 41.08651 | -84.73335 | 35051 ft | 344 kts | 261° |
| 2026-05-06 05:01 | 41.08133 | -84.76435 | 35296 ft | 343 kts | 261° |
| 2026-05-06 05:01 | 41.07612 | -84.79540 | 35526 ft | 343 kts | 261° |
| 2026-05-06 05:01 | 41.07098 | -84.82585 | 35764 ft | 343 kts | 261° |
| 2026-05-06 05:01 | 41.06577 | -84.85667 | 35988 ft | 342 kts | 261° |
| 2026-05-06 05:02 | 41.06055 | -84.88744 | 36216 ft | 342 kts | 261° |
| 2026-05-06 05:02 | 41.05532 | -84.91820 | 36441 ft | 341 kts | 261° |
| 2026-05-06 05:02 | 41.05006 | -84.94905 | 36659 ft | 341 kts | 261° |
| 2026-05-06 05:02 | 41.04490 | -84.97931 | 36873 ft | 341 kts | 261° |
| 2026-05-06 05:03 | 41.03966 | -85.00993 | 37083 ft | 340 kts | 261° |
| 2026-05-06 05:03 | 41.03442 | -85.04050 | 37304 ft | 339 kts | 261° |
| 2026-05-06 05:03 | 41.02921 | -85.07088 | 37536 ft | 338 kts | 261° |
| 2026-05-06 05:03 | 41.02399 | -85.10125 | 37718 ft | 337 kts | 261° |
| 2026-05-06 05:04 | 41.01878 | -85.13151 | 37892 ft | 337 kts | 261° |
| 2026-05-06 05:04 | 41.00831 | -85.19217 | 37908 ft | 337 kts | 261° |
| 2026-05-06 05:05 | 40.99783 | -85.25269 | 37915 ft | 336 kts | 261° |
| 2026-05-06 05:05 | 40.98742 | -85.31263 | 37906 ft | 336 kts | 261° |
| 2026-05-06 05:06 | 40.97691 | -85.37301 | 37916 ft | 336 kts | 261° |
| 2026-05-06 05:06 | 40.96638 | -85.43322 | 37914 ft | 336 kts | 260° |
| 2026-05-06 05:07 | 40.95583 | -85.49343 | 37925 ft | 335 kts | 260° |
| 2026-05-06 05:07 | 40.94531 | -85.55322 | 37930 ft | 335 kts | 260° |
| 2026-05-06 05:08 | 40.93471 | -85.61326 | 37923 ft | 335 kts | 260° |
| 2026-05-06 05:08 | 40.92410 | -85.67323 | 37909 ft | 335 kts | 260° |
| 2026-05-06 05:09 | 40.91342 | -85.73332 | 37906 ft | 335 kts | 260° |
| 2026-05-06 05:09 | 40.90281 | -85.79291 | 37902 ft | 335 kts | 260° |
| 2026-05-06 05:10 | 40.89207 | -85.85298 | 37909 ft | 335 kts | 260° |
| 2026-05-06 05:10 | 40.88276 | -85.91318 | 37897 ft | 333 kts | 263° |
| 2026-05-06 05:11 | 40.87620 | -85.97378 | 37915 ft | 333 kts | 264° |
| 2026-05-06 05:11 | 40.86996 | -86.03266 | 37900 ft | 333 kts | 264° |
| 2026-05-06 05:12 | 40.86346 | -86.09324 | 37899 ft | 333 kts | 264° |
| 2026-05-06 05:12 | 40.86019 | -86.12366 | 37903 ft | 333 kts | 264° |
| 2026-05-06 05:13 | 40.85366 | -86.18394 | 37928 ft | 333 kts | 264° |
| 2026-05-06 05:13 | 40.84751 | -86.24446 | 37892 ft | 331 kts | 264° |
| 2026-05-06 05:14 | 40.84187 | -86.29448 | 37895 ft | 331 kts | 263° |
| 2026-05-06 05:14 | 40.83509 | -86.35459 | 37909 ft | 330 kts | 263° |
| 2026-05-06 05:15 | 40.82842 | -86.41457 | 37905 ft | 330 kts | 263° |
| 2026-05-06 05:15 | 40.82176 | -86.47453 | 37902 ft | 330 kts | 263° |
| 2026-05-06 05:16 | 40.81511 | -86.53412 | 37913 ft | 330 kts | 263° |
| 2026-05-06 05:16 | 40.80839 | -86.59419 | 37920 ft | 329 kts | 263° |
| 2026-05-06 05:17 | 40.80169 | -86.65372 | 37909 ft | 329 kts | 263° |
| 2026-05-06 05:17 | 40.79493 | -86.71350 | 37913 ft | 329 kts | 263° |
| 2026-05-06 05:18 | 40.78813 | -86.77338 | 37918 ft | 329 kts | 263° |
| 2026-05-06 05:18 | 40.78135 | -86.83285 | 37932 ft | 329 kts | 263° |
| 2026-05-06 05:19 | 40.77447 | -86.89290 | 37922 ft | 334 kts | 263° |
| 2026-05-06 05:19 | 40.76745 | -86.95384 | 37959 ft | 337 kts | 263° |
| 2026-05-06 05:20 | 40.76036 | -87.01511 | 37925 ft | 338 kts | 263° |
| 2026-05-06 05:20 | 40.75327 | -87.07604 | 37925 ft | 337 kts | 263° |
| 2026-05-06 05:21 | 40.74612 | -87.13723 | 37920 ft | 337 kts | 263° |
| 2026-05-06 05:21 | 40.73893 | -87.19840 | 37919 ft | 337 kts | 263° |
| 2026-05-06 05:22 | 40.73221 | -87.25545 | 37922 ft | 337 kts | 263° |
| 2026-05-06 05:22 | 40.72865 | -87.28551 | 37791 ft | 335 kts | 263° |
| 2026-05-06 05:22 | 40.72505 | -87.31584 | 37353 ft | 335 kts | 263° |
| 2026-05-06 05:22 | 40.72143 | -87.34627 | 36913 ft | 335 kts | 263° |
| 2026-05-06 05:23 | 40.71780 | -87.37676 | 36451 ft | 336 kts | 263° |
| 2026-05-06 05:23 | 40.71417 | -87.40720 | 36005 ft | 337 kts | 263° |
| 2026-05-06 05:23 | 40.70682 | -87.46851 | 35134 ft | 340 kts | 263° |
| 2026-05-06 05:24 | 40.70310 | -87.49949 | 34708 ft | 342 kts | 262° |
| 2026-05-06 05:24 | 40.69935 | -87.53059 | 34290 ft | 344 kts | 262° |
| 2026-05-06 05:24 | 40.69561 | -87.56155 | 33874 ft | 346 kts | 262° |
| 2026-05-06 05:24 | 40.69304 | -87.58278 | 33547 ft | 348 kts | 262° |
| 2026-05-06 05:25 | 40.69150 | -87.59555 | 33354 ft | 349 kts | 262° |
| 2026-05-06 05:25 | 40.68765 | -87.62728 | 32881 ft | 353 kts | 262° |
| 2026-05-06 05:25 | 40.68372 | -87.65957 | 32421 ft | 359 kts | 261° |
| 2026-05-06 05:25 | 40.67973 | -87.69232 | 31964 ft | 365 kts | 261° |
| 2026-05-06 05:26 | 40.67570 | -87.72524 | 31540 ft | 370 kts | 260° |
| 2026-05-06 05:26 | 40.67152 | -87.75934 | 31086 ft | 376 kts | 260° |
| 2026-05-06 05:26 | 40.66731 | -87.79356 | 30660 ft | 381 kts | 259° |
| 2026-05-06 05:26 | 40.66304 | -87.82823 | 30235 ft | 386 kts | 259° |
| 2026-05-06 05:27 | 40.65871 | -87.86296 | 29974 ft | 391 kts | 258° |
| 2026-05-06 05:27 | 40.65249 | -87.89800 | 29923 ft | 393 kts | 252° |
| 2026-05-06 05:27 | 40.62863 | -87.96282 | 29925 ft | 396 kts | 237° |
| 2026-05-06 05:28 | 40.59350 | -88.01915 | 29928 ft | 398 kts | 232° |
| 2026-05-06 05:28 | 40.55638 | -88.07339 | 29928 ft | 399 kts | 231° |
| 2026-05-06 05:29 | 40.51930 | -88.12723 | 29936 ft | 400 kts | 231° |
| 2026-05-06 05:29 | 40.48201 | -88.18185 | 29937 ft | 401 kts | 231° |
| 2026-05-06 05:30 | 40.44483 | -88.23653 | 29942 ft | 401 kts | 232° |
| 2026-05-06 05:30 | 40.40787 | -88.29090 | 29943 ft | 401 kts | 232° |
| 2026-05-06 05:31 | 40.37066 | -88.34552 | 29945 ft | 401 kts | 232° |
| 2026-05-06 05:31 | 40.33338 | -88.40013 | 29940 ft | 401 kts | 232° |
| 2026-05-06 05:32 | 40.29631 | -88.45432 | 29935 ft | 401 kts | 232° |
| 2026-05-06 05:32 | 40.25895 | -88.50883 | 29938 ft | 402 kts | 232° |
| 2026-05-06 05:33 | 40.22139 | -88.56354 | 29940 ft | 402 kts | 233° |
| 2026-05-06 05:33 | 40.18431 | -88.61741 | 29939 ft | 399 kts | 233° |
| 2026-05-06 05:34 | 40.14705 | -88.67151 | 29946 ft | 399 kts | 233° |
| 2026-05-06 05:34 | 40.10986 | -88.72540 | 29950 ft | 399 kts | 233° |
| 2026-05-06 05:35 | 40.07265 | -88.77923 | 29954 ft | 399 kts | 233° |
| 2026-05-06 05:35 | 40.03564 | -88.83267 | 29957 ft | 399 kts | 233° |
| 2026-05-06 05:36 | 39.99836 | -88.88636 | 29956 ft | 396 kts | 234° |
| 2026-05-06 05:36 | 39.96158 | -88.93923 | 29965 ft | 392 kts | 234° |
| 2026-05-06 05:37 | 39.92498 | -88.99183 | 29964 ft | 392 kts | 234° |
| 2026-05-06 05:37 | 39.90333 | -89.02290 | 29962 ft | 392 kts | 234° |
| 2026-05-06 05:38 | 39.86687 | -89.07516 | 29960 ft | 392 kts | 234° |
| 2026-05-06 05:38 | 39.86071 | -89.08396 | 29948 ft | 392 kts | 234° |
| 2026-05-06 05:39 | 39.83405 | -89.12208 | 29958 ft | 392 kts | 234° |
| 2026-05-06 05:39 | 39.79725 | -89.17462 | 29922 ft | 392 kts | 234° |
| 2026-05-06 05:40 | 39.76067 | -89.22674 | 29957 ft | 393 kts | 234° |
| 2026-05-06 05:40 | 39.72380 | -89.27920 | 29955 ft | 391 kts | 234° |
| 2026-05-06 05:41 | 39.68706 | -89.33137 | 29957 ft | 390 kts | 234° |
| 2026-05-06 05:41 | 39.65041 | -89.38335 | 29958 ft | 390 kts | 234° |
| 2026-05-06 05:42 | 39.61388 | -89.43507 | 29955 ft | 390 kts | 234° |
| 2026-05-06 05:42 | 39.57717 | -89.48696 | 29906 ft | 390 kts | 234° |
| 2026-05-06 05:43 | 39.54168 | -89.53704 | 29959 ft | 391 kts | 235° |
| 2026-05-06 05:43 | 39.50538 | -89.58817 | 29963 ft | 391 kts | 234° |
| 2026-05-06 05:44 | 39.47117 | -89.63627 | 29966 ft | 391 kts | 234° |
| 2026-05-06 05:44 | 39.45341 | -89.66122 | 29966 ft | 391 kts | 234° |
| 2026-05-06 05:45 | 39.41741 | -89.71173 | 29971 ft | 391 kts | 234° |
| 2026-05-06 05:45 | 39.38045 | -89.76348 | 29980 ft | 391 kts | 234° |
| 2026-05-06 05:46 | 39.34356 | -89.81506 | 29937 ft | 391 kts | 234° |
| 2026-05-06 05:46 | 39.31906 | -89.84927 | 29975 ft | 391 kts | 235° |
| 2026-05-06 05:47 | 39.30663 | -89.86660 | 29974 ft | 391 kts | 235° |
| 2026-05-06 05:47 | 39.28031 | -89.90329 | 29974 ft | 391 kts | 235° |
| 2026-05-06 05:49 | 39.26118 | -89.92993 | 29972 ft | 390 kts | 235° |
| 2026-05-06 05:49 | 39.24295 | -89.95530 | 29973 ft | 391 kts | 235° |
| 2026-05-06 05:50 | 39.22321 | -89.98274 | 29976 ft | 390 kts | 235° |
| 2026-05-06 05:50 | 39.18625 | -90.03404 | 29986 ft | 389 kts | 235° |
| 2026-05-06 05:51 | 39.14964 | -90.08477 | 29983 ft | 389 kts | 235° |
| 2026-05-06 05:51 | 39.11275 | -90.13583 | 29957 ft | 388 kts | 234° |
| 2026-05-06 05:52 | 39.07589 | -90.18675 | 29977 ft | 387 kts | 234° |
| 2026-05-06 05:52 | 39.03925 | -90.23728 | 29972 ft | 387 kts | 234° |
| 2026-05-06 05:53 | 39.00270 | -90.28762 | 29972 ft | 387 kts | 234° |
| 2026-05-06 05:53 | 38.96593 | -90.33815 | 29966 ft | 387 kts | 234° |
| 2026-05-06 05:54 | 38.92914 | -90.38865 | 30010 ft | 387 kts | 234° |
| 2026-05-06 05:54 | 38.89243 | -90.43894 | 29972 ft | 385 kts | 235° |
| 2026-05-06 05:55 | 38.85592 | -90.48925 | 29971 ft | 383 kts | 236° |
| 2026-05-06 05:55 | 38.82071 | -90.54045 | 29974 ft | 382 kts | 236° |
| 2026-05-06 05:56 | 38.78598 | -90.59196 | 29981 ft | 382 kts | 236° |
| 2026-05-06 05:56 | 38.75139 | -90.64304 | 29979 ft | 382 kts | 236° |
| 2026-05-06 05:57 | 38.71639 | -90.69443 | 29981 ft | 382 kts | 236° |
| 2026-05-06 05:57 | 38.68131 | -90.74575 | 29982 ft | 382 kts | 236° |
| 2026-05-06 05:58 | 38.64634 | -90.79682 | 29935 ft | 381 kts | 236° |
| 2026-05-06 05:58 | 38.61140 | -90.84777 | 29980 ft | 383 kts | 236° |
| 2026-05-06 05:59 | 38.57624 | -90.89895 | 29981 ft | 382 kts | 236° |
| 2026-05-06 05:59 | 38.54121 | -90.94986 | 29980 ft | 382 kts | 236° |
| 2026-05-06 06:00 | 38.50626 | -91.00059 | 29979 ft | 382 kts | 236° |
| 2026-05-06 06:00 | 38.47114 | -91.05147 | 29980 ft | 382 kts | 236° |
| 2026-05-06 06:01 | 38.43592 | -91.10244 | 29979 ft | 382 kts | 236° |
| 2026-05-06 06:01 | 38.40069 | -91.15333 | 30025 ft | 382 kts | 236° |
| 2026-05-06 06:02 | 38.37143 | -91.19552 | 30001 ft | 380 kts | 236° |
| 2026-05-06 06:02 | 38.33635 | -91.24604 | 30008 ft | 380 kts | 236° |
| 2026-05-06 06:03 | 38.30133 | -91.29643 | 30005 ft | 380 kts | 236° |
| 2026-05-06 06:03 | 38.26650 | -91.34645 | 30001 ft | 380 kts | 236° |
| 2026-05-06 06:04 | 38.23137 | -91.39681 | 29998 ft | 380 kts | 236° |
| 2026-05-06 06:04 | 38.19622 | -91.44712 | 29993 ft | 380 kts | 236° |
| 2026-05-06 06:05 | 38.16132 | -91.49699 | 29995 ft | 380 kts | 236° |
| 2026-05-06 06:05 | 38.12614 | -91.54718 | 30001 ft | 380 kts | 236° |
| 2026-05-06 06:06 | 38.09086 | -91.59741 | 30004 ft | 380 kts | 236° |
| 2026-05-06 06:06 | 38.05562 | -91.64754 | 30005 ft | 380 kts | 236° |
| 2026-05-06 06:07 | 38.02037 | -91.69758 | 30006 ft | 380 kts | 236° |
| 2026-05-06 06:07 | 37.98507 | -91.74762 | 30004 ft | 380 kts | 236° |
| 2026-05-06 06:08 | 37.94978 | -91.79759 | 29986 ft | 380 kts | 236° |
| 2026-05-06 06:08 | 37.91469 | -91.84719 | 29989 ft | 381 kts | 236° |
| 2026-05-06 06:09 | 37.87919 | -91.89731 | 29982 ft | 381 kts | 235° |
| 2026-05-06 06:09 | 37.84370 | -91.94731 | 29981 ft | 382 kts | 235° |
| 2026-05-06 06:10 | 37.80816 | -91.99729 | 29981 ft | 382 kts | 235° |
| 2026-05-06 06:10 | 37.77267 | -92.04713 | 29979 ft | 382 kts | 235° |
| 2026-05-06 06:11 | 37.74207 | -92.09007 | 29980 ft | 382 kts | 235° |
| 2026-05-06 06:11 | 37.70650 | -92.13989 | 29980 ft | 381 kts | 235° |
| 2026-05-06 06:12 | 37.67085 | -92.18975 | 29976 ft | 382 kts | 235° |
| 2026-05-06 06:12 | 37.63514 | -92.23962 | 29977 ft | 383 kts | 235° |
| 2026-05-06 06:13 | 37.59933 | -92.28953 | 29985 ft | 383 kts | 235° |
| 2026-05-06 06:13 | 37.56380 | -92.33897 | 29972 ft | 382 kts | 235° |
| 2026-05-06 06:14 | 37.52808 | -92.38861 | 30013 ft | 382 kts | 235° |
| 2026-05-06 06:14 | 37.49233 | -92.43823 | 30011 ft | 382 kts | 235° |
| 2026-05-06 06:15 | 37.45661 | -92.48772 | 30011 ft | 382 kts | 235° |
| 2026-05-06 06:15 | 37.42073 | -92.53737 | 30004 ft | 384 kts | 235° |
| 2026-05-06 06:16 | 37.38475 | -92.58707 | 30001 ft | 384 kts | 235° |
| 2026-05-06 06:16 | 37.34871 | -92.63675 | 30001 ft | 384 kts | 234° |
| 2026-05-06 06:17 | 37.31263 | -92.68642 | 30002 ft | 384 kts | 235° |
| 2026-05-06 06:17 | 37.27667 | -92.73585 | 29990 ft | 383 kts | 235° |
| 2026-05-06 06:18 | 37.24093 | -92.78491 | 29995 ft | 383 kts | 235° |
| 2026-05-06 06:18 | 37.20500 | -92.83418 | 29992 ft | 383 kts | 234° |
| 2026-05-06 06:19 | 37.16895 | -92.88354 | 29992 ft | 384 kts | 234° |
| 2026-05-06 06:19 | 37.13274 | -92.93304 | 29991 ft | 385 kts | 234° |
| 2026-05-06 06:20 | 37.09648 | -92.98249 | 29992 ft | 385 kts | 234° |
| 2026-05-06 06:20 | 37.06016 | -93.03197 | 29996 ft | 385 kts | 234° |
| 2026-05-06 06:21 | 37.02405 | -93.08107 | 30000 ft | 385 kts | 234° |
| 2026-05-06 06:21 | 36.98779 | -93.13032 | 29997 ft | 384 kts | 234° |
| 2026-05-06 06:22 | 36.95156 | -93.17947 | 29991 ft | 384 kts | 234° |
| 2026-05-06 06:22 | 36.91524 | -93.22868 | 29996 ft | 386 kts | 234° |
| 2026-05-06 06:23 | 36.87871 | -93.27808 | 29993 ft | 387 kts | 234° |
| 2026-05-06 06:23 | 36.84214 | -93.32744 | 29995 ft | 387 kts | 234° |
| 2026-05-06 06:24 | 36.80579 | -93.37644 | 29995 ft | 387 kts | 234° |
| 2026-05-06 06:24 | 36.76919 | -93.42569 | 29991 ft | 387 kts | 234° |
| 2026-05-06 06:25 | 36.73251 | -93.47499 | 29989 ft | 387 kts | 234° |
| 2026-05-06 06:26 | 36.67747 | -93.54883 | 29984 ft | 388 kts | 234° |
| 2026-05-06 06:26 | 36.64092 | -93.59780 | 29994 ft | 389 kts | 234° |
| 2026-05-06 06:27 | 36.60397 | -93.64719 | 29990 ft | 390 kts | 234° |
| 2026-05-06 06:27 | 36.56697 | -93.69657 | 29989 ft | 390 kts | 234° |
| 2026-05-06 06:28 | 36.52993 | -93.74594 | 29991 ft | 390 kts | 234° |
| 2026-05-06 06:28 | 36.49289 | -93.79521 | 29991 ft | 390 kts | 234° |
| 2026-05-06 06:29 | 36.45604 | -93.84417 | 29987 ft | 389 kts | 234° |
| 2026-05-06 06:29 | 36.41906 | -93.89325 | 29985 ft | 389 kts | 234° |
| 2026-05-06 06:30 | 36.38195 | -93.94242 | 29989 ft | 390 kts | 234° |
| 2026-05-06 06:30 | 36.34477 | -93.99161 | 29989 ft | 390 kts | 234° |
| 2026-05-06 06:31 | 36.30763 | -94.04068 | 29990 ft | 390 kts | 234° |
| 2026-05-06 06:31 | 36.26840 | -94.08719 | 29970 ft | 399 kts | 226° |
| 2026-05-06 06:32 | 36.21891 | -94.12146 | 29964 ft | 420 kts | 211° |
| 2026-05-06 06:32 | 36.19037 | -94.13139 | 29964 ft | 433 kts | 204° |
| 2026-05-06 06:32 | 36.16054 | -94.13814 | 29939 ft | 438 kts | 201° |
| 2026-05-06 06:33 | 36.09988 | -94.14868 | 29954 ft | 440 kts | 199° |
| 2026-05-06 06:33 | 36.03918 | -94.15843 | 29970 ft | 439 kts | 200° |
| 2026-05-06 06:34 | 35.97895 | -94.16856 | 29973 ft | 439 kts | 200° |
| 2026-05-06 06:34 | 35.91839 | -94.17912 | 29972 ft | 438 kts | 200° |
| 2026-05-06 06:35 | 35.85810 | -94.18973 | 29928 ft | 438 kts | 200° |
| 2026-05-06 06:35 | 35.79764 | -94.20033 | 29929 ft | 438 kts | 200° |
| 2026-05-06 06:36 | 35.73730 | -94.21087 | 29921 ft | 437 kts | 200° |
| 2026-05-06 06:36 | 35.67702 | -94.22137 | 29861 ft | 437 kts | 200° |
| 2026-05-06 06:37 | 35.61718 | -94.23179 | 29911 ft | 435 kts | 200° |
| 2026-05-06 06:37 | 35.55738 | -94.24220 | 29905 ft | 434 kts | 200° |
| 2026-05-06 06:38 | 35.49756 | -94.25262 | 29909 ft | 434 kts | 200° |
| 2026-05-06 06:38 | 35.43825 | -94.26359 | 29910 ft | 428 kts | 204° |
| 2026-05-06 06:38 | 35.40981 | -94.27310 | 29897 ft | 417 kts | 210° |
| 2026-05-06 06:39 | 35.38344 | -94.28683 | 29915 ft | 407 kts | 217° |
| 2026-05-06 06:39 | 35.33811 | -94.32541 | 29917 ft | 393 kts | 227° |
| 2026-05-06 06:40 | 35.29697 | -94.36941 | 29919 ft | 391 kts | 229° |
| 2026-05-06 06:40 | 35.25683 | -94.41380 | 29915 ft | 391 kts | 229° |
| 2026-05-06 06:41 | 35.21624 | -94.45831 | 29914 ft | 391 kts | 229° |
| 2026-05-06 06:41 | 35.17549 | -94.50251 | 29911 ft | 391 kts | 229° |
| 2026-05-06 06:42 | 35.13463 | -94.54663 | 29928 ft | 393 kts | 229° |
| 2026-05-06 06:42 | 35.09385 | -94.59060 | 29934 ft | 393 kts | 229° |
| 2026-05-06 06:43 | 35.05283 | -94.63474 | 29934 ft | 392 kts | 229° |
| 2026-05-06 06:43 | 35.01188 | -94.67877 | 29933 ft | 392 kts | 229° |
| 2026-05-06 06:44 | 34.97115 | -94.72251 | 29893 ft | 392 kts | 229° |
| 2026-05-06 06:44 | 34.93396 | -94.76242 | 29893 ft | 392 kts | 229° |
| 2026-05-06 06:45 | 34.89297 | -94.80633 | 29858 ft | 392 kts | 229° |
| 2026-05-06 06:45 | 34.85191 | -94.85026 | 29889 ft | 393 kts | 229° |
| 2026-05-06 06:46 | 34.81046 | -94.89405 | 29894 ft | 394 kts | 228° |
| 2026-05-06 06:46 | 34.76868 | -94.93680 | 29893 ft | 395 kts | 227° |
| 2026-05-06 06:47 | 34.72661 | -94.97973 | 29879 ft | 393 kts | 227° |
| 2026-05-06 06:47 | 34.68462 | -95.02254 | 29884 ft | 392 kts | 227° |
| 2026-05-06 06:48 | 34.64301 | -95.06493 | 29900 ft | 392 kts | 227° |
| 2026-05-06 06:48 | 34.60111 | -95.10758 | 29884 ft | 393 kts | 227° |
| 2026-05-06 06:49 | 34.55913 | -95.15024 | 29885 ft | 393 kts | 227° |
| 2026-05-06 06:49 | 34.52423 | -95.18564 | 29895 ft | 393 kts | 227° |
| 2026-05-06 06:50 | 34.47535 | -95.23519 | 29886 ft | 393 kts | 227° |
| 2026-05-06 06:50 | 34.44011 | -95.27076 | 29886 ft | 393 kts | 227° |
| 2026-05-06 06:51 | 34.39804 | -95.31316 | 29881 ft | 393 kts | 227° |
| 2026-05-06 06:51 | 34.35623 | -95.35524 | 29845 ft | 392 kts | 227° |
| 2026-05-06 06:52 | 34.31408 | -95.39762 | 29897 ft | 396 kts | 227° |
| 2026-05-06 06:52 | 34.27158 | -95.44030 | 29894 ft | 397 kts | 227° |
| 2026-05-06 06:53 | 34.22927 | -95.48271 | 29900 ft | 397 kts | 227° |
| 2026-05-06 06:53 | 34.18677 | -95.52522 | 29901 ft | 397 kts | 227° |
| 2026-05-06 06:54 | 34.14410 | -95.56781 | 29906 ft | 397 kts | 227° |
| 2026-05-06 06:54 | 34.10151 | -95.61029 | 29908 ft | 397 kts | 227° |
| 2026-05-06 06:55 | 34.05911 | -95.65255 | 29884 ft | 398 kts | 227° |
| 2026-05-06 06:55 | 34.01636 | -95.69514 | 29885 ft | 399 kts | 227° |
| 2026-05-06 06:56 | 33.97379 | -95.73744 | 29609 ft | 393 kts | 227° |
| 2026-05-06 06:56 | 33.95267 | -95.75843 | 29356 ft | 394 kts | 227° |
| 2026-05-06 06:56 | 33.93146 | -95.77952 | 29086 ft | 396 kts | 227° |
| 2026-05-06 06:56 | 33.91015 | -95.80068 | 28813 ft | 398 kts | 227° |
| 2026-05-06 06:57 | 33.88897 | -95.82170 | 28553 ft | 400 kts | 227° |
| 2026-05-06 06:57 | 33.86746 | -95.84303 | 28290 ft | 401 kts | 226° |
| 2026-05-06 06:57 | 33.84584 | -95.86444 | 28026 ft | 403 kts | 226° |
| 2026-05-06 06:57 | 33.82413 | -95.88593 | 27772 ft | 405 kts | 226° |
| 2026-05-06 06:58 | 33.80226 | -95.90756 | 27508 ft | 407 kts | 226° |
| 2026-05-06 06:58 | 33.78029 | -95.92929 | 27325 ft | 410 kts | 226° |
| 2026-05-06 06:58 | 33.75846 | -95.95086 | 27088 ft | 411 kts | 226° |
| 2026-05-06 06:58 | 33.73650 | -95.97250 | 26831 ft | 401 kts | 226° |
| 2026-05-06 06:59 | 33.71521 | -95.99342 | 26575 ft | 388 kts | 226° |
| 2026-05-06 06:59 | 33.69464 | -96.01365 | 26324 ft | 376 kts | 226° |
| 2026-05-06 06:59 | 33.67472 | -96.03327 | 26082 ft | 364 kts | 226° |
| 2026-05-06 06:59 | 33.65539 | -96.05230 | 25857 ft | 354 kts | 226° |
| 2026-05-06 07:00 | 33.63661 | -96.07080 | 25547 ft | 345 kts | 226° |
| 2026-05-06 07:00 | 33.61823 | -96.08892 | 25171 ft | 340 kts | 226° |
| 2026-05-06 07:00 | 33.60000 | -96.10690 | 24757 ft | 336 kts | 227° |
| 2026-05-06 07:00 | 33.58203 | -96.12460 | 24347 ft | 333 kts | 227° |
| 2026-05-06 07:01 | 33.56441 | -96.14195 | 23953 ft | 330 kts | 227° |
| 2026-05-06 07:01 | 33.54667 | -96.15939 | 23564 ft | 329 kts | 227° |
| 2026-05-06 07:01 | 33.52952 | -96.17627 | 23098 ft | 329 kts | 226° |
| 2026-05-06 07:01 | 33.51910 | -96.18650 | 22849 ft | 328 kts | 226° |
| 2026-05-06 07:02 | 33.50159 | -96.20366 | 22481 ft | 322 kts | 226° |
| 2026-05-06 07:02 | 33.48437 | -96.22053 | 22103 ft | 319 kts | 226° |
| 2026-05-06 07:02 | 33.46714 | -96.23743 | 21711 ft | 319 kts | 226° |
| 2026-05-06 07:02 | 33.45019 | -96.25456 | 21318 ft | 316 kts | 229° |
| 2026-05-06 07:03 | 33.43502 | -96.27338 | 20922 ft | 312 kts | 233° |
| 2026-05-06 07:03 | 33.42073 | -96.29284 | 20534 ft | 310 kts | 233° |
| 2026-05-06 07:03 | 33.40681 | -96.31211 | 20157 ft | 309 kts | 233° |
| 2026-05-06 07:03 | 33.39276 | -96.33156 | 19774 ft | 307 kts | 233° |
| 2026-05-06 07:04 | 33.37878 | -96.35086 | 19397 ft | 306 kts | 233° |
| 2026-05-06 07:04 | 33.36485 | -96.37007 | 19022 ft | 305 kts | 233° |
| 2026-05-06 07:04 | 33.35110 | -96.38899 | 18850 ft | 295 kts | 233° |
| 2026-05-06 07:04 | 33.33781 | -96.40725 | 18582 ft | 289 kts | 233° |
| 2026-05-06 07:05 | 33.32468 | -96.42543 | 18217 ft | 288 kts | 233° |
| 2026-05-06 07:05 | 33.31165 | -96.44368 | 17827 ft | 288 kts | 234° |
| 2026-05-06 07:05 | 33.29866 | -96.46190 | 17514 ft | 287 kts | 234° |
| 2026-05-06 07:05 | 33.28570 | -96.48009 | 17252 ft | 287 kts | 234° |
| 2026-05-06 07:06 | 33.27275 | -96.49790 | 16911 ft | 288 kts | 233° |
| 2026-05-06 07:06 | 33.25892 | -96.51640 | 16629 ft | 303 kts | 232° |
| 2026-05-06 07:06 | 33.24482 | -96.53511 | 16329 ft | 309 kts | 232° |
| 2026-05-06 07:06 | 33.23037 | -96.55417 | 16013 ft | 309 kts | 232° |
| 2026-05-06 07:07 | 33.21594 | -96.57317 | 15730 ft | 308 kts | 232° |
| 2026-05-06 07:07 | 33.20161 | -96.59204 | 15492 ft | 302 kts | 232° |
| 2026-05-06 07:07 | 33.18776 | -96.61026 | 15261 ft | 293 kts | 232° |
| 2026-05-06 07:07 | 33.17428 | -96.62844 | 14964 ft | 292 kts | 233° |
| 2026-05-06 07:08 | 33.16088 | -96.64678 | 14630 ft | 292 kts | 233° |
| 2026-05-06 07:08 | 33.14751 | -96.66513 | 14375 ft | 292 kts | 233° |
| 2026-05-06 07:08 | 33.13417 | -96.68342 | 14129 ft | 292 kts | 233° |
| 2026-05-06 07:08 | 33.12087 | -96.70165 | 13881 ft | 292 kts | 233° |
| 2026-05-06 07:09 | 33.10772 | -96.71963 | 13690 ft | 282 kts | 233° |
| 2026-05-06 07:09 | 33.09505 | -96.73691 | 13456 ft | 269 kts | 233° |
| 2026-05-06 07:09 | 33.08293 | -96.75346 | 13228 ft | 263 kts | 234° |
| 2026-05-06 07:09 | 33.07083 | -96.77000 | 13000 ft | 266 kts | 233° |
| 2026-05-06 07:10 | 33.05866 | -96.78656 | 12809 ft | 265 kts | 233° |
| 2026-05-06 07:10 | 33.04651 | -96.80305 | 12672 ft | 265 kts | 233° |
| 2026-05-06 07:10 | 33.03448 | -96.81937 | 12545 ft | 265 kts | 233° |
| 2026-05-06 07:10 | 33.02230 | -96.83588 | 12414 ft | 265 kts | 233° |
| 2026-05-06 07:11 | 33.01014 | -96.85235 | 12274 ft | 264 kts | 233° |
| 2026-05-06 07:11 | 32.99804 | -96.86871 | 12122 ft | 262 kts | 233° |
| 2026-05-06 07:11 | 32.98578 | -96.88483 | 12019 ft | 263 kts | 230° |
| 2026-05-06 07:11 | 32.97094 | -96.89802 | 11775 ft | 273 kts | 214° |
| 2026-05-06 07:12 | 32.95244 | -96.90449 | 11491 ft | 281 kts | 196° |
| 2026-05-06 07:12 | 32.93305 | -96.90651 | 11243 ft | 277 kts | 192° |
| 2026-05-06 07:12 | 32.91400 | -96.90768 | 10997 ft | 272 kts | 192° |
| 2026-05-06 07:12 | 32.89531 | -96.90880 | 10749 ft | 266 kts | 192° |
| 2026-05-06 07:13 | 32.87724 | -96.90995 | 10511 ft | 261 kts | 192° |
| 2026-05-06 07:13 | 32.85928 | -96.91117 | 10271 ft | 256 kts | 193° |
| 2026-05-06 07:13 | 32.84164 | -96.91241 | 10031 ft | 251 kts | 193° |
| 2026-05-06 07:13 | 32.82441 | -96.91364 | 9795 ft | 246 kts | 193° |
| 2026-05-06 07:14 | 32.80742 | -96.91486 | 9538 ft | 243 kts | 192° |
| 2026-05-06 07:14 | 32.79050 | -96.91549 | 9292 ft | 243 kts | 190° |
| 2026-05-06 07:14 | 32.77363 | -96.91565 | 9035 ft | 242 kts | 189° |
| 2026-05-06 07:14 | 32.75686 | -96.91569 | 8781 ft | 240 kts | 189° |
| 2026-05-06 07:15 | 32.74015 | -96.91570 | 8529 ft | 239 kts | 188° |
| 2026-05-06 07:15 | 32.72358 | -96.91571 | 8281 ft | 237 kts | 188° |
| 2026-05-06 07:15 | 32.70717 | -96.91570 | 8039 ft | 235 kts | 188° |
| 2026-05-06 07:15 | 32.69090 | -96.91571 | 7782 ft | 233 kts | 186° |
| 2026-05-06 07:16 | 32.67466 | -96.91571 | 7544 ft | 233 kts | 186° |
| 2026-05-06 07:16 | 32.65861 | -96.91572 | 7306 ft | 232 kts | 186° |
| 2026-05-06 07:16 | 32.64253 | -96.91572 | 7072 ft | 230 kts | 186° |
| 2026-05-06 07:16 | 32.62654 | -96.91572 | 6856 ft | 226 kts | 185° |
| 2026-05-06 07:17 | 32.61089 | -96.91571 | 6648 ft | 224 kts | 185° |
| 2026-05-06 07:17 | 32.59559 | -96.91588 | 6483 ft | 213 kts | 188° |
| 2026-05-06 07:17 | 32.58182 | -96.91963 | 6346 ft | 195 kts | 209° |
| 2026-05-06 07:17 | 32.57135 | -96.92926 | 6192 ft | 191 kts | 232° |
| 2026-05-06 07:18 | 32.56570 | -96.94347 | 5966 ft | 193 kts | 256° |
| 2026-05-06 07:18 | 32.56625 | -96.95992 | 5864 ft | 215 kts | 281° |
| 2026-05-06 07:18 | 32.57183 | -96.97685 | 5756 ft | 224 kts | 290° |
| 2026-05-06 07:18 | 32.57870 | -96.99350 | 5624 ft | 226 kts | 292° |
| 2026-05-06 07:19 | 32.58615 | -97.00995 | 5503 ft | 229 kts | 299° |
| 2026-05-06 07:19 | 32.59764 | -97.02303 | 5347 ft | 229 kts | 326° |
| 2026-05-06 07:19 | 32.61279 | -97.02790 | 5180 ft | 225 kts | 351° |
| 2026-05-06 07:19 | 32.62811 | -97.02832 | 4999 ft | 215 kts | 356° |
| 2026-05-06 07:20 | 32.64311 | -97.02796 | 4998 ft | 216 kts | 358° |
| 2026-05-06 07:20 | 32.65818 | -97.02758 | 4856 ft | 217 kts | 357° |
| 2026-05-06 07:20 | 32.67327 | -97.02745 | 4600 ft | 217 kts | 356° |
| 2026-05-06 07:20 | 32.68836 | -97.02740 | 4293 ft | 217 kts | 357° |
| 2026-05-06 07:21 | 32.70327 | -97.02730 | 3989 ft | 216 kts | 358° |
| 2026-05-06 07:21 | 32.71817 | -97.02720 | 3701 ft | 212 kts | 358° |
| 2026-05-06 07:21 | 32.73281 | -97.02711 | 3422 ft | 209 kts | 358° |
| 2026-05-06 07:21 | 32.74726 | -97.02703 | 3162 ft | 206 kts | 360° |
| 2026-05-06 07:22 | 32.76125 | -97.02693 | 2887 ft | 194 kts | 0° |
| 2026-05-06 07:22 | 32.77428 | -97.02685 | 2654 ft | 181 kts | 2° |
| 2026-05-06 07:22 | 32.78619 | -97.02678 | 2436 ft | 163 kts | 2° |
| 2026-05-06 07:22 | 32.79698 | -97.02671 | 2199 ft | 146 kts | 3° |
| 2026-05-06 07:23 | 32.80717 | -97.02664 | 1992 ft | 132 kts | 4° |
| 2026-05-06 07:23 | 32.81563 | -97.02659 | 1834 ft | 127 kts | 2° |
| 2026-05-06 07:23 | 32.82438 | -97.02654 | 1672 ft | 127 kts | 3° |
| 2026-05-06 07:23 | 32.83320 | -97.02649 | 1497 ft | 126 kts | 4° |
| 2026-05-06 07:24 | 32.84198 | -97.02640 | 1319 ft | 124 kts | 1° |
| 2026-05-06 07:24 | 32.85063 | -97.02625 | 1180 ft | 125 kts | 1° |
| 2026-05-06 07:24 | 32.85930 | -97.02633 | 1019 ft | 124 kts | 0° |
| 2026-05-06 07:24 | 32.86800 | -97.02620 | 855 ft | 124 kts | 0° |
| 2026-05-06 07:25 | 32.87664 | -97.02619 | 716 ft | 124 kts | 360° |
| 2026-05-06 07:25 | 32.88512 | -97.02613 | 627 ft | 114 kts | 360° |
| 2026-05-06 07:25 | 32.89201 | -97.02610 | 622 ft | 85 kts | 0° |
| 2026-05-06 07:25 | 32.89709 | -97.02610 | 623 ft | 61 kts | 358° |
| 2026-05-06 07:26 | 32.89942 | -97.02687 | 633 ft | 19 kts | 330° |
| 2026-05-06 07:26 | 32.90003 | -97.02728 | 623 ft | 3 kts | 330° |
| 2026-05-06 07:26 | 32.90019 | -97.02739 | 619 ft | 5 kts | 330° |
| 2026-05-06 07:26 | 32.90063 | -97.02769 | 629 ft | 10 kts | 330° |
| 2026-05-06 07:27 | 32.90141 | -97.02805 | 627 ft | 14 kts | 356° |
| 2026-05-06 07:27 | 32.90262 | -97.02804 | 619 ft | 19 kts | 0° |
| 2026-05-06 07:27 | 32.90383 | -97.02803 | 623 ft | 18 kts | 0° |
| 2026-05-06 07:27 | 32.90467 | -97.02851 | 622 ft | 13 kts | 277° |
| 2026-05-06 07:28 | 32.90468 | -97.02957 | 625 ft | 13 kts | 271° |
| 2026-05-06 07:28 | 32.90469 | -97.03066 | 619 ft | 13 kts | 270° |
| 2026-05-06 07:28 | 32.90470 | -97.03198 | 619 ft | 0 kts | 270° |
| 2026-05-06 07:29 | 32.90470 | -97.03201 | 619 ft | 0 kts | 270° |
| 2026-05-06 07:29 | 32.90470 | -97.03206 | 619 ft | 1 kts | 270° |
| 2026-05-06 07:29 | 32.90470 | -97.03212 | 619 ft | 1 kts | 270° |
| 2026-05-06 07:29 | 32.90470 | -97.03228 | 619 ft | 4 kts | 269° |
| 2026-05-06 07:30 | 32.90469 | -97.03286 | 619 ft | 10 kts | 269° |
| 2026-05-06 07:30 | 32.90434 | -97.03312 | 628 ft | 7 kts | 176° |
| 2026-05-06 07:30 | 32.90376 | -97.03311 | 625 ft | 10 kts | 179° |
| 2026-05-06 07:30 | 32.90301 | -97.03311 | 625 ft | 12 kts | 181° |
| 2026-05-06 07:31 | 32.90208 | -97.03312 | 626 ft | 15 kts | 180° |
| 2026-05-06 07:31 | 32.90097 | -97.03313 | 625 ft | 17 kts | 180° |
| 2026-05-06 07:31 | 32.89970 | -97.03314 | 623 ft | 19 kts | 180° |
| 2026-05-06 07:31 | 32.89829 | -97.03314 | 624 ft | 22 kts | 180° |
| 2026-05-06 07:32 | 32.89672 | -97.03316 | 628 ft | 24 kts | 181° |
| 2026-05-06 07:32 | 32.89500 | -97.03318 | 627 ft | 25 kts | 180° |
| 2026-05-06 07:32 | 32.89415 | -97.03362 | 621 ft | 9 kts | 274° |
| 2026-05-06 07:32 | 32.89412 | -97.03440 | 630 ft | 10 kts | 252° |
| 2026-05-06 07:33 | 32.89393 | -97.03531 | 619 ft | 13 kts | 261° |
| 2026-05-06 07:33 | 32.89334 | -97.03573 | 625 ft | 12 kts | 173° |
| 2026-05-06 07:33 | 32.89271 | -97.03586 | 621 ft | 4 kts | 225° |
| 2026-05-06 07:33 | 32.89262 | -97.03597 | 622 ft | 0 kts | 227° |
| 2026-05-06 07:34 | 32.89257 | -97.03604 | 619 ft | 0 kts | 227° |